sensor_id;sensor_type;location;lat;lon;timestamp;pressure;altitude;pressure_sealevel;temperature
69597;BMP180;56802;51.184;-115.558;2022-08-11T00:02:01;86786.20;;;
69597;BMP180;56802;51.184;-115.558;2022-08-11T00:04:37;86781.20;;;
69597;BMP180;56802;51.184;-115.558;2022-08-11T00:07:08;86787.00;;;
69597;BMP180;56802;51.184;-115.558;2022-08-11T00:09:39;86784.60;;;
69597;BMP180;56802;51.184;-115.558;2022-08-11T00:12:17;86791.40;;;
69597;BMP180;56802;51.184;-115.558;2022-08-11T00:14:57;86795.20;;;
69597;BMP180;56802;51.184;-115.558;2022-08-11T00:17:31;86797.40;;;
69597;BMP180;56802;51.184;-115.558;2022-08-11T00:20:09;86793.60;;;
69597;BMP180;56802;51.184;-115.558;2022-08-11T00:22:46;86791.60;;;
69597;BMP180;56802;51.184;-115.558;2022-08-11T00:25:20;86794.60;;;
69597;BMP180;56802;51.184;-115.558;2022-08-11T00:27:49;86793.60;;;
69597;BMP180;56802;51.184;-115.558;2022-08-11T00:30:19;86796.00;;;
69597;BMP180;56802;51.184;-115.558;2022-08-11T00:32:57;86793.60;;;
69597;BMP180;56802;51.184;-115.558;2022-08-11T00:35:29;86796.40;;;
69597;BMP180;56802;51.184;-115.558;2022-08-11T00:38:25;86803.20;;;
69597;BMP180;56802;51.184;-115.558;2022-08-11T00:44:22;86801.00;;;
69597;BMP180;56802;51.184;-115.558;2022-08-11T01:18:15;86812.40;;;
69597;BMP180;56802;51.184;-115.558;2022-08-11T01:21:35;86817.60;;;
69597;BMP180;56802;51.184;-115.558;2022-08-11T01:28:21;86817.80;;;
69597;BMP180;56802;51.184;-115.558;2022-08-11T01:53:44;86817.60;;;
69597;BMP180;56802;51.184;-115.558;2022-08-11T01:59:24;86815.40;;;
69597;BMP180;56802;51.184;-115.558;2022-08-11T02:04:57;86814.60;;;
69597;BMP180;56802;51.184;-115.558;2022-08-11T02:07:49;86816.60;;;
69597;BMP180;56802;51.184;-115.558;2022-08-11T02:10:57;86817.00;;;
69597;BMP180;56802;51.184;-115.558;2022-08-11T02:14:18;86814.00;;;
69597;BMP180;56802;51.184;-115.558;2022-08-11T02:17:13;86812.20;;;
69597;BMP180;56802;51.184;-115.558;2022-08-11T02:20:27;86819.00;;;
69597;BMP180;56802;51.184;-115.558;2022-08-11T02:26:49;86816.80;;;
69597;BMP180;56802;51.184;-115.558;2022-08-11T02:30:00;86816.60;;;
69597;BMP180;56802;51.184;-115.558;2022-08-11T02:36:21;86810.40;;;
69597;BMP180;56802;51.184;-115.558;2022-08-11T02:39:14;86805.80;;;
69597;BMP180;56802;51.184;-115.558;2022-08-11T02:42:24;86806.60;;;
69597;BMP180;56802;51.184;-115.558;2022-08-11T02:45:15;86810.40;;;
69597;BMP180;56802;51.184;-115.558;2022-08-11T02:54:35;86806.60;;;
69597;BMP180;56802;51.184;-115.558;2022-08-11T03:00:30;86812.40;;;
69597;BMP180;56802;51.184;-115.558;2022-08-11T03:06:43;86814.80;;;
69597;BMP180;56802;51.184;-115.558;2022-08-11T03:33:29;86831.00;;;
69597;BMP180;56802;51.184;-115.558;2022-08-11T03:36:52;86827.60;;;
69597;BMP180;56802;51.184;-115.558;2022-08-11T03:40:45;86831.20;;;
69597;BMP180;56802;51.184;-115.558;2022-08-11T03:44:33;86833.40;;;
69597;BMP180;56802;51.184;-115.558;2022-08-11T03:51:28;86839.00;;;
69597;BMP180;56802;51.184;-115.558;2022-08-11T04:21:18;86841.20;;;
69597;BMP180;56802;51.184;-115.558;2022-08-11T04:24:26;86842.60;;;
69597;BMP180;56802;51.184;-115.558;2022-08-11T04:27:32;86843.20;;;
69597;BMP180;56802;51.184;-115.558;2022-08-11T04:30:13;86839.80;;;
69597;BMP180;56802;51.184;-115.558;2022-08-11T04:33:38;86834.40;;;
69597;BMP180;56802;51.184;-115.558;2022-08-11T04:36:58;86832.80;;;
69597;BMP180;56802;51.184;-115.558;2022-08-11T04:49:41;86827.40;;;
69597;BMP180;56802;51.184;-115.558;2022-08-11T04:59:51;86837.80;;;
69597;BMP180;56802;51.184;-115.558;2022-08-11T05:03:42;86833.60;;;
69597;BMP180;56802;51.184;-115.558;2022-08-11T05:09:36;86829.20;;;
69597;BMP180;56802;51.184;-115.558;2022-08-11T05:12:44;86833.20;;;
69597;BMP180;56802;51.184;-115.558;2022-08-11T05:15:23;86834.40;;;
69597;BMP180;56802;51.184;-115.558;2022-08-11T05:18:23;86835.60;;;
69597;BMP180;56802;51.184;-115.558;2022-08-11T05:21:13;86830.00;;;
69597;BMP180;56802;51.184;-115.558;2022-08-11T05:27:12;86823.80;;;
69597;BMP180;56802;51.184;-115.558;2022-08-11T05:30:10;86824.40;;;
69597;BMP180;56802;51.184;-115.558;2022-08-11T05:33:34;86822.40;;;
69597;BMP180;56802;51.184;-115.558;2022-08-11T05:36:27;86824.20;;;
69597;BMP180;56802;51.184;-115.558;2022-08-11T05:39:07;86821.00;;;
69597;BMP180;56802;51.184;-115.558;2022-08-11T05:42:06;86825.80;;;
69597;BMP180;56802;51.184;-115.558;2022-08-11T05:45:17;86826.80;;;
69597;BMP180;56802;51.184;-115.558;2022-08-11T05:48:32;86834.80;;;
69597;BMP180;56802;51.184;-115.558;2022-08-11T05:51:35;86836.00;;;
69597;BMP180;56802;51.184;-115.558;2022-08-11T05:54:40;86836.80;;;
69597;BMP180;56802;51.184;-115.558;2022-08-11T05:57:37;86838.80;;;
69597;BMP180;56802;51.184;-115.558;2022-08-11T06:00:19;86838.40;;;
69597;BMP180;56802;51.184;-115.558;2022-08-11T06:02:59;86840.60;;;
69597;BMP180;56802;51.184;-115.558;2022-08-11T06:05:37;86840.60;;;
69597;BMP180;56802;51.184;-115.558;2022-08-11T06:08:12;86842.40;;;
69597;BMP180;56802;51.184;-115.558;2022-08-11T06:10:44;86838.60;;;
69597;BMP180;56802;51.184;-115.558;2022-08-11T06:13:16;86845.80;;;
69597;BMP180;56802;51.184;-115.558;2022-08-11T06:15:50;86843.60;;;
69597;BMP180;56802;51.184;-115.558;2022-08-11T06:18:21;86842.60;;;
69597;BMP180;56802;51.184;-115.558;2022-08-11T06:20:53;86848.00;;;
69597;BMP180;56802;51.184;-115.558;2022-08-11T06:23:31;86846.60;;;
69597;BMP180;56802;51.184;-115.558;2022-08-11T06:26:12;86846.00;;;
69597;BMP180;56802;51.184;-115.558;2022-08-11T06:28:46;86849.60;;;
69597;BMP180;56802;51.184;-115.558;2022-08-11T06:31:22;86842.80;;;
69597;BMP180;56802;51.184;-115.558;2022-08-11T06:34:06;86845.00;;;
69597;BMP180;56802;51.184;-115.558;2022-08-11T06:36:56;86849.00;;;
69597;BMP180;56802;51.184;-115.558;2022-08-11T06:40:04;86851.40;;;
69597;BMP180;56802;51.184;-115.558;2022-08-11T06:43:37;86853.00;;;
69597;BMP180;56802;51.184;-115.558;2022-08-11T06:46:06;86852.00;;;
69597;BMP180;56802;51.184;-115.558;2022-08-11T06:48:40;86850.40;;;
69597;BMP180;56802;51.184;-115.558;2022-08-11T06:51:11;86849.00;;;
69597;BMP180;56802;51.184;-115.558;2022-08-11T06:53:50;86844.40;;;
69597;BMP180;56802;51.184;-115.558;2022-08-11T06:56:37;86850.60;;;
69597;BMP180;56802;51.184;-115.558;2022-08-11T06:59:47;86846.60;;;
69597;BMP180;56802;51.184;-115.558;2022-08-11T07:02:51;86842.40;;;
69597;BMP180;56802;51.184;-115.558;2022-08-11T07:05:38;86846.80;;;
69597;BMP180;56802;51.184;-115.558;2022-08-11T07:12:02;86848.40;;;
69597;BMP180;56802;51.184;-115.558;2022-08-11T07:15:05;86849.00;;;
69597;BMP180;56802;51.184;-115.558;2022-08-11T07:18:26;86855.20;;;
69597;BMP180;56802;51.184;-115.558;2022-08-11T07:21:34;86856.60;;;
69597;BMP180;56802;51.184;-115.558;2022-08-11T07:25:06;86857.80;;;
69597;BMP180;56802;51.184;-115.558;2022-08-11T07:28:10;86860.80;;;
69597;BMP180;56802;51.184;-115.558;2022-08-11T07:31:10;86864.00;;;
69597;BMP180;56802;51.184;-115.558;2022-08-11T07:33:55;86862.40;;;
69597;BMP180;56802;51.184;-115.558;2022-08-11T07:36:48;86864.00;;;
69597;BMP180;56802;51.184;-115.558;2022-08-11T07:39:31;86864.00;;;
69597;BMP180;56802;51.184;-115.558;2022-08-11T07:42:09;86863.00;;;
69597;BMP180;56802;51.184;-115.558;2022-08-11T07:44:42;86861.40;;;
69597;BMP180;56802;51.184;-115.558;2022-08-11T07:47:32;86863.00;;;
69597;BMP180;56802;51.184;-115.558;2022-08-11T07:50:43;86865.80;;;
69597;BMP180;56802;51.184;-115.558;2022-08-11T07:53:33;86865.40;;;
69597;BMP180;56802;51.184;-115.558;2022-08-11T07:56:26;86865.80;;;
69597;BMP180;56802;51.184;-115.558;2022-08-11T07:59:18;86872.60;;;
69597;BMP180;56802;51.184;-115.558;2022-08-11T08:02:26;86864.00;;;
69597;BMP180;56802;51.184;-115.558;2022-08-11T08:05:16;86864.80;;;
69597;BMP180;56802;51.184;-115.558;2022-08-11T08:08:07;86866.80;;;
69597;BMP180;56802;51.184;-115.558;2022-08-11T08:10:56;86871.40;;;
69597;BMP180;56802;51.184;-115.558;2022-08-11T08:13:54;86868.20;;;
69597;BMP180;56802;51.184;-115.558;2022-08-11T08:16:43;86868.80;;;
69597;BMP180;56802;51.184;-115.558;2022-08-11T08:19:32;86864.40;;;
69597;BMP180;56802;51.184;-115.558;2022-08-11T08:22:04;86862.00;;;
69597;BMP180;56802;51.184;-115.558;2022-08-11T08:24:55;86859.80;;;
69597;BMP180;56802;51.184;-115.558;2022-08-11T08:27:26;86858.40;;;
69597;BMP180;56802;51.184;-115.558;2022-08-11T08:29:59;86857.20;;;
69597;BMP180;56802;51.184;-115.558;2022-08-11T08:32:50;86861.40;;;
69597;BMP180;56802;51.184;-115.558;2022-08-11T08:35:19;86865.20;;;
69597;BMP180;56802;51.184;-115.558;2022-08-11T08:37:50;86856.00;;;
69597;BMP180;56802;51.184;-115.558;2022-08-11T08:40:21;86859.20;;;
69597;BMP180;56802;51.184;-115.558;2022-08-11T08:42:57;86858.20;;;
69597;BMP180;56802;51.184;-115.558;2022-08-11T08:45:33;86862.60;;;
69597;BMP180;56802;51.184;-115.558;2022-08-11T08:48:10;86862.00;;;
69597;BMP180;56802;51.184;-115.558;2022-08-11T08:50:50;86864.20;;;
69597;BMP180;56802;51.184;-115.558;2022-08-11T08:53:48;86866.20;;;
69597;BMP180;56802;51.184;-115.558;2022-08-11T08:56:26;86864.20;;;
69597;BMP180;56802;51.184;-115.558;2022-08-11T08:59:00;86870.80;;;
69597;BMP180;56802;51.184;-115.558;2022-08-11T09:01:45;86871.00;;;
69597;BMP180;56802;51.184;-115.558;2022-08-11T09:04:17;86872.60;;;
69597;BMP180;56802;51.184;-115.558;2022-08-11T09:06:48;86879.00;;;
69597;BMP180;56802;51.184;-115.558;2022-08-11T09:09:24;86874.40;;;
69597;BMP180;56802;51.184;-115.558;2022-08-11T09:11:54;86873.40;;;
69597;BMP180;56802;51.184;-115.558;2022-08-11T09:14:37;86875.40;;;
69597;BMP180;56802;51.184;-115.558;2022-08-11T09:17:30;86873.20;;;
69597;BMP180;56802;51.184;-115.558;2022-08-11T09:20:07;86872.80;;;
69597;BMP180;56802;51.184;-115.558;2022-08-11T09:22:42;86875.80;;;
69597;BMP180;56802;51.184;-115.558;2022-08-11T09:25:55;86877.80;;;
69597;BMP180;56802;51.184;-115.558;2022-08-11T09:28:46;86878.60;;;
69597;BMP180;56802;51.184;-115.558;2022-08-11T09:31:17;86878.40;;;
69597;BMP180;56802;51.184;-115.558;2022-08-11T09:33:53;86879.40;;;
69597;BMP180;56802;51.184;-115.558;2022-08-11T09:36:23;86875.60;;;
69597;BMP180;56802;51.184;-115.558;2022-08-11T09:39:13;86875.80;;;
69597;BMP180;56802;51.184;-115.558;2022-08-11T09:42:03;86875.20;;;
69597;BMP180;56802;51.184;-115.558;2022-08-11T09:44:38;86870.00;;;
69597;BMP180;56802;51.184;-115.558;2022-08-11T09:47:29;86871.60;;;
69597;BMP180;56802;51.184;-115.558;2022-08-11T09:50:01;86862.80;;;
69597;BMP180;56802;51.184;-115.558;2022-08-11T09:52:36;86869.80;;;
69597;BMP180;56802;51.184;-115.558;2022-08-11T09:55:24;86863.60;;;
69597;BMP180;56802;51.184;-115.558;2022-08-11T09:57:54;86868.20;;;
69597;BMP180;56802;51.184;-115.558;2022-08-11T10:01:04;86864.00;;;
69597;BMP180;56802;51.184;-115.558;2022-08-11T10:03:39;86871.00;;;
69597;BMP180;56802;51.184;-115.558;2022-08-11T10:06:11;86871.20;;;
69597;BMP180;56802;51.184;-115.558;2022-08-11T10:09:05;86870.00;;;
69597;BMP180;56802;51.184;-115.558;2022-08-11T10:11:37;86875.40;;;
69597;BMP180;56802;51.184;-115.558;2022-08-11T10:14:08;86871.00;;;
69597;BMP180;56802;51.184;-115.558;2022-08-11T10:17:08;86875.00;;;
69597;BMP180;56802;51.184;-115.558;2022-08-11T10:19:38;86876.80;;;
69597;BMP180;56802;51.184;-115.558;2022-08-11T10:22:09;86881.40;;;
69597;BMP180;56802;51.184;-115.558;2022-08-11T10:25:02;86882.80;;;
69597;BMP180;56802;51.184;-115.558;2022-08-11T10:27:49;86881.60;;;
69597;BMP180;56802;51.184;-115.558;2022-08-11T10:30:46;86879.40;;;
69597;BMP180;56802;51.184;-115.558;2022-08-11T10:33:40;86877.20;;;
69597;BMP180;56802;51.184;-115.558;2022-08-11T10:36:33;86877.80;;;
69597;BMP180;56802;51.184;-115.558;2022-08-11T10:39:05;86874.40;;;
69597;BMP180;56802;51.184;-115.558;2022-08-11T10:41:36;86878.60;;;
69597;BMP180;56802;51.184;-115.558;2022-08-11T10:44:43;86880.60;;;
69597;BMP180;56802;51.184;-115.558;2022-08-11T10:47:14;86883.00;;;
69597;BMP180;56802;51.184;-115.558;2022-08-11T10:50:10;86883.80;;;
69597;BMP180;56802;51.184;-115.558;2022-08-11T10:53:00;86878.20;;;
69597;BMP180;56802;51.184;-115.558;2022-08-11T10:55:49;86880.00;;;
69597;BMP180;56802;51.184;-115.558;2022-08-11T10:58:39;86878.60;;;
69597;BMP180;56802;51.184;-115.558;2022-08-11T11:01:27;86881.40;;;
69597;BMP180;56802;51.184;-115.558;2022-08-11T11:07:22;86879.00;;;
69597;BMP180;56802;51.184;-115.558;2022-08-11T11:10:12;86874.00;;;
69597;BMP180;56802;51.184;-115.558;2022-08-11T11:12:46;86876.40;;;
69597;BMP180;56802;51.184;-115.558;2022-08-11T11:15:41;86878.00;;;
69597;BMP180;56802;51.184;-115.558;2022-08-11T11:18:37;86874.80;;;
69597;BMP180;56802;51.184;-115.558;2022-08-11T11:21:14;86882.00;;;
69597;BMP180;56802;51.184;-115.558;2022-08-11T11:28:04;86879.60;;;
69597;BMP180;56802;51.184;-115.558;2022-08-11T11:34:35;86880.80;;;
69597;BMP180;56802;51.184;-115.558;2022-08-11T11:37:23;86882.00;;;
69597;BMP180;56802;51.184;-115.558;2022-08-11T11:39:55;86882.40;;;
69597;BMP180;56802;51.184;-115.558;2022-08-11T11:42:26;86884.20;;;
69597;BMP180;56802;51.184;-115.558;2022-08-11T11:44:57;86888.80;;;
69597;BMP180;56802;51.184;-115.558;2022-08-11T11:47:29;86887.40;;;
69597;BMP180;56802;51.184;-115.558;2022-08-11T11:50:01;86889.60;;;
69597;BMP180;56802;51.184;-115.558;2022-08-11T11:52:31;86890.60;;;
69597;BMP180;56802;51.184;-115.558;2022-08-11T11:55:06;86891.40;;;
69597;BMP180;56802;51.184;-115.558;2022-08-11T11:57:36;86885.20;;;
69597;BMP180;56802;51.184;-115.558;2022-08-11T12:00:30;86883.80;;;
69597;BMP180;56802;51.184;-115.558;2022-08-11T12:03:20;86889.00;;;
69597;BMP180;56802;51.184;-115.558;2022-08-11T12:05:51;86888.20;;;
69597;BMP180;56802;51.184;-115.558;2022-08-11T12:08:23;86894.80;;;
69597;BMP180;56802;51.184;-115.558;2022-08-11T12:11:13;86893.40;;;
69597;BMP180;56802;51.184;-115.558;2022-08-11T12:14:07;86896.20;;;
69597;BMP180;56802;51.184;-115.558;2022-08-11T12:16:40;86902.20;;;
69597;BMP180;56802;51.184;-115.558;2022-08-11T12:19:17;86899.20;;;
69597;BMP180;56802;51.184;-115.558;2022-08-11T12:21:50;86899.60;;;
69597;BMP180;56802;51.184;-115.558;2022-08-11T12:24:39;86900.60;;;
69597;BMP180;56802;51.184;-115.558;2022-08-11T12:27:29;86898.80;;;
69597;BMP180;56802;51.184;-115.558;2022-08-11T12:30:04;86905.00;;;
69597;BMP180;56802;51.184;-115.558;2022-08-11T12:32:36;86900.60;;;
69597;BMP180;56802;51.184;-115.558;2022-08-11T12:35:08;86897.60;;;
69597;BMP180;56802;51.184;-115.558;2022-08-11T12:37:51;86901.40;;;
69597;BMP180;56802;51.184;-115.558;2022-08-11T12:40:39;86905.20;;;
69597;BMP180;56802;51.184;-115.558;2022-08-11T12:43:46;86903.40;;;
69597;BMP180;56802;51.184;-115.558;2022-08-11T12:46:36;86901.60;;;
69597;BMP180;56802;51.184;-115.558;2022-08-11T12:49:13;86898.20;;;
69597;BMP180;56802;51.184;-115.558;2022-08-11T12:52:08;86907.00;;;
69597;BMP180;56802;51.184;-115.558;2022-08-11T12:57:44;86901.80;;;
69597;BMP180;56802;51.184;-115.558;2022-08-11T13:00:33;86902.60;;;
69597;BMP180;56802;51.184;-115.558;2022-08-11T13:03:22;86906.40;;;
69597;BMP180;56802;51.184;-115.558;2022-08-11T13:06:23;86904.20;;;
69597;BMP180;56802;51.184;-115.558;2022-08-11T13:08:56;86910.20;;;
69597;BMP180;56802;51.184;-115.558;2022-08-11T13:11:29;86910.60;;;
69597;BMP180;56802;51.184;-115.558;2022-08-11T13:14:26;86910.60;;;
69597;BMP180;56802;51.184;-115.558;2022-08-11T13:16:57;86915.40;;;
69597;BMP180;56802;51.184;-115.558;2022-08-11T13:19:48;86916.00;;;
69597;BMP180;56802;51.184;-115.558;2022-08-11T13:22:21;86922.20;;;
69597;BMP180;56802;51.184;-115.558;2022-08-11T13:24:53;86923.20;;;
69597;BMP180;56802;51.184;-115.558;2022-08-11T13:27:24;86923.00;;;
69597;BMP180;56802;51.184;-115.558;2022-08-11T13:29:53;86919.20;;;
69597;BMP180;56802;51.184;-115.558;2022-08-11T13:32:45;86911.00;;;
69597;BMP180;56802;51.184;-115.558;2022-08-11T13:35:16;86909.40;;;
69597;BMP180;56802;51.184;-115.558;2022-08-11T13:37:47;86916.60;;;
69597;BMP180;56802;51.184;-115.558;2022-08-11T13:40:40;86921.20;;;
69597;BMP180;56802;51.184;-115.558;2022-08-11T13:43:23;86920.20;;;
69597;BMP180;56802;51.184;-115.558;2022-08-11T13:45:54;86922.80;;;
69597;BMP180;56802;51.184;-115.558;2022-08-11T13:48:44;86921.20;;;
69597;BMP180;56802;51.184;-115.558;2022-08-11T13:51:14;86920.60;;;
69597;BMP180;56802;51.184;-115.558;2022-08-11T13:54:07;86918.60;;;
69597;BMP180;56802;51.184;-115.558;2022-08-11T13:56:41;86922.20;;;
69597;BMP180;56802;51.184;-115.558;2022-08-11T13:59:14;86913.80;;;
69597;BMP180;56802;51.184;-115.558;2022-08-11T14:02:03;86915.60;;;
69597;BMP180;56802;51.184;-115.558;2022-08-11T14:05:21;86919.40;;;
69597;BMP180;56802;51.184;-115.558;2022-08-11T14:08:02;86922.40;;;
69597;BMP180;56802;51.184;-115.558;2022-08-11T14:10:34;86925.80;;;
69597;BMP180;56802;51.184;-115.558;2022-08-11T14:13:13;86927.00;;;
69597;BMP180;56802;51.184;-115.558;2022-08-11T14:16:39;86931.00;;;
69597;BMP180;56802;51.184;-115.558;2022-08-11T14:19:13;86935.80;;;
69597;BMP180;56802;51.184;-115.558;2022-08-11T14:21:44;86937.20;;;
69597;BMP180;56802;51.184;-115.558;2022-08-11T14:24:41;86943.60;;;
69597;BMP180;56802;51.184;-115.558;2022-08-11T14:27:13;86936.60;;;
69597;BMP180;56802;51.184;-115.558;2022-08-11T14:30:04;86936.60;;;
69597;BMP180;56802;51.184;-115.558;2022-08-11T14:32:56;86935.40;;;
69597;BMP180;56802;51.184;-115.558;2022-08-11T14:35:27;86933.80;;;
69597;BMP180;56802;51.184;-115.558;2022-08-11T14:37:58;86935.80;;;
69597;BMP180;56802;51.184;-115.558;2022-08-11T14:40:32;86942.60;;;
69597;BMP180;56802;51.184;-115.558;2022-08-11T14:43:19;86943.00;;;
69597;BMP180;56802;51.184;-115.558;2022-08-11T14:46:29;86955.00;;;
69597;BMP180;56802;51.184;-115.558;2022-08-11T14:49:18;86950.60;;;
69597;BMP180;56802;51.184;-115.558;2022-08-11T14:51:49;86949.00;;;
69597;BMP180;56802;51.184;-115.558;2022-08-11T14:54:28;86952.60;;;
69597;BMP180;56802;51.184;-115.558;2022-08-11T14:57:19;86948.60;;;
69597;BMP180;56802;51.184;-115.558;2022-08-11T15:00:13;86950.20;;;
69597;BMP180;56802;51.184;-115.558;2022-08-11T15:02:48;86957.20;;;
69597;BMP180;56802;51.184;-115.558;2022-08-11T15:05:58;86958.20;;;
69597;BMP180;56802;51.184;-115.558;2022-08-11T15:08:32;86952.60;;;
69597;BMP180;56802;51.184;-115.558;2022-08-11T15:11:31;86960.80;;;
69597;BMP180;56802;51.184;-115.558;2022-08-11T15:14:19;86961.60;;;
69597;BMP180;56802;51.184;-115.558;2022-08-11T15:17:09;86961.20;;;
69597;BMP180;56802;51.184;-115.558;2022-08-11T15:19:46;86957.80;;;
69597;BMP180;56802;51.184;-115.558;2022-08-11T15:22:34;86956.80;;;
69597;BMP180;56802;51.184;-115.558;2022-08-11T15:25:22;86953.60;;;
69597;BMP180;56802;51.184;-115.558;2022-08-11T15:27:53;86948.60;;;
69597;BMP180;56802;51.184;-115.558;2022-08-11T15:30:42;86946.60;;;
69597;BMP180;56802;51.184;-115.558;2022-08-11T15:33:35;86947.20;;;
69597;BMP180;56802;51.184;-115.558;2022-08-11T15:36:26;86939.20;;;
69597;BMP180;56802;51.184;-115.558;2022-08-11T15:39:50;86944.00;;;
69597;BMP180;56802;51.184;-115.558;2022-08-11T15:43:13;86945.80;;;
69597;BMP180;56802;51.184;-115.558;2022-08-11T15:46:13;86936.40;;;
69597;BMP180;56802;51.184;-115.558;2022-08-11T15:49:20;86936.60;;;
69597;BMP180;56802;51.184;-115.558;2022-08-11T15:52:06;86936.80;;;
69597;BMP180;56802;51.184;-115.558;2022-08-11T15:54:42;86937.60;;;
69597;BMP180;56802;51.184;-115.558;2022-08-11T15:57:16;86938.20;;;
69597;BMP180;56802;51.184;-115.558;2022-08-11T16:00:23;86936.00;;;
69597;BMP180;56802;51.184;-115.558;2022-08-11T16:03:13;86927.20;;;
69597;BMP180;56802;51.184;-115.558;2022-08-11T16:06:21;86925.40;;;
69597;BMP180;56802;51.184;-115.558;2022-08-11T16:08:52;86930.00;;;
69597;BMP180;56802;51.184;-115.558;2022-08-11T16:11:25;86926.40;;;
69597;BMP180;56802;51.184;-115.558;2022-08-11T16:13:56;86927.80;;;
69597;BMP180;56802;51.184;-115.558;2022-08-11T16:16:46;86925.40;;;
69597;BMP180;56802;51.184;-115.558;2022-08-11T16:19:18;86922.20;;;
69597;BMP180;56802;51.184;-115.558;2022-08-11T16:21:52;86916.60;;;
69597;BMP180;56802;51.184;-115.558;2022-08-11T16:24:23;86922.40;;;
69597;BMP180;56802;51.184;-115.558;2022-08-11T16:27:15;86921.80;;;
69597;BMP180;56802;51.184;-115.558;2022-08-11T16:29:52;86923.40;;;
69597;BMP180;56802;51.184;-115.558;2022-08-11T16:32:24;86918.40;;;
69597;BMP180;56802;51.184;-115.558;2022-08-11T16:35:03;86915.40;;;
69597;BMP180;56802;51.184;-115.558;2022-08-11T16:37:54;86923.20;;;
69597;BMP180;56802;51.184;-115.558;2022-08-11T16:40:43;86920.20;;;
69597;BMP180;56802;51.184;-115.558;2022-08-11T16:43:18;86919.00;;;
69597;BMP180;56802;51.184;-115.558;2022-08-11T16:46:26;86916.40;;;
69597;BMP180;56802;51.184;-115.558;2022-08-11T16:49:25;86910.40;;;
69597;BMP180;56802;51.184;-115.558;2022-08-11T16:52:02;86904.80;;;
69597;BMP180;56802;51.184;-115.558;2022-08-11T16:54:34;86905.00;;;
69597;BMP180;56802;51.184;-115.558;2022-08-11T16:57:25;86901.40;;;
69597;BMP180;56802;51.184;-115.558;2022-08-11T17:00:16;86897.00;;;
69597;BMP180;56802;51.184;-115.558;2022-08-11T17:02:51;86888.80;;;
69597;BMP180;56802;51.184;-115.558;2022-08-11T17:05:50;86891.20;;;
69597;BMP180;56802;51.184;-115.558;2022-08-11T17:08:52;86888.40;;;
69597;BMP180;56802;51.184;-115.558;2022-08-11T17:11:47;86881.60;;;
69597;BMP180;56802;51.184;-115.558;2022-08-11T17:14:48;86878.40;;;
69597;BMP180;56802;51.184;-115.558;2022-08-11T17:17:31;86874.80;;;
69597;BMP180;56802;51.184;-115.558;2022-08-11T17:20:06;86874.40;;;
69597;BMP180;56802;51.184;-115.558;2022-08-11T17:22:59;86870.40;;;
69597;BMP180;56802;51.184;-115.558;2022-08-11T17:25:48;86867.00;;;
69597;BMP180;56802;51.184;-115.558;2022-08-11T17:28:32;86868.60;;;
69597;BMP180;56802;51.184;-115.558;2022-08-11T17:31:08;86868.60;;;
69597;BMP180;56802;51.184;-115.558;2022-08-11T17:33:58;86866.20;;;
69597;BMP180;56802;51.184;-115.558;2022-08-11T17:36:47;86864.80;;;
69597;BMP180;56802;51.184;-115.558;2022-08-11T17:39:23;86859.00;;;
69597;BMP180;56802;51.184;-115.558;2022-08-11T17:41:54;86854.20;;;
69597;BMP180;56802;51.184;-115.558;2022-08-11T17:44:43;86856.60;;;
69597;BMP180;56802;51.184;-115.558;2022-08-11T17:47:33;86854.20;;;
69597;BMP180;56802;51.184;-115.558;2022-08-11T17:50:21;86848.00;;;
69597;BMP180;56802;51.184;-115.558;2022-08-11T17:52:52;86851.80;;;
69597;BMP180;56802;51.184;-115.558;2022-08-11T17:55:41;86850.60;;;
69597;BMP180;56802;51.184;-115.558;2022-08-11T17:58:31;86847.80;;;
69597;BMP180;56802;51.184;-115.558;2022-08-11T18:01:21;86847.60;;;
69597;BMP180;56802;51.184;-115.558;2022-08-11T18:03:53;86839.60;;;
69597;BMP180;56802;51.184;-115.558;2022-08-11T18:06:28;86838.60;;;
69597;BMP180;56802;51.184;-115.558;2022-08-11T18:09:11;86842.40;;;
69597;BMP180;56802;51.184;-115.558;2022-08-11T18:12:02;86846.20;;;
69597;BMP180;56802;51.184;-115.558;2022-08-11T18:15:13;86845.40;;;
69597;BMP180;56802;51.184;-115.558;2022-08-11T18:18:01;86841.60;;;
69597;BMP180;56802;51.184;-115.558;2022-08-11T18:20:50;86844.80;;;
69597;BMP180;56802;51.184;-115.558;2022-08-11T18:23:38;86845.80;;;
69597;BMP180;56802;51.184;-115.558;2022-08-11T18:26:27;86841.80;;;
69597;BMP180;56802;51.184;-115.558;2022-08-11T18:29:18;86840.80;;;
69597;BMP180;56802;51.184;-115.558;2022-08-11T18:32:11;86835.00;;;
69597;BMP180;56802;51.184;-115.558;2022-08-11T18:35:19;86827.80;;;
69597;BMP180;56802;51.184;-115.558;2022-08-11T18:38:10;86824.00;;;
69597;BMP180;56802;51.184;-115.558;2022-08-11T18:41:05;86826.20;;;
69597;BMP180;56802;51.184;-115.558;2022-08-11T18:43:58;86822.80;;;
69597;BMP180;56802;51.184;-115.558;2022-08-11T18:46:52;86824.40;;;
69597;BMP180;56802;51.184;-115.558;2022-08-11T18:49:44;86820.00;;;
69597;BMP180;56802;51.184;-115.558;2022-08-11T18:52:34;86821.20;;;
69597;BMP180;56802;51.184;-115.558;2022-08-11T18:55:23;86823.40;;;
69597;BMP180;56802;51.184;-115.558;2022-08-11T18:58:16;86822.00;;;
69597;BMP180;56802;51.184;-115.558;2022-08-11T19:01:10;86819.00;;;
69597;BMP180;56802;51.184;-115.558;2022-08-11T19:04:01;86822.00;;;
69597;BMP180;56802;51.184;-115.558;2022-08-11T19:06:58;86816.60;;;
69597;BMP180;56802;51.184;-115.558;2022-08-11T19:09:48;86814.80;;;
69597;BMP180;56802;51.184;-115.558;2022-08-11T19:12:42;86816.20;;;
69597;BMP180;56802;51.184;-115.558;2022-08-11T19:15:32;86814.60;;;
69597;BMP180;56802;51.184;-115.558;2022-08-11T19:18:22;86814.20;;;
69597;BMP180;56802;51.184;-115.558;2022-08-11T19:21:12;86806.40;;;
69597;BMP180;56802;51.184;-115.558;2022-08-11T19:24:02;86800.80;;;
69597;BMP180;56802;51.184;-115.558;2022-08-11T19:26:52;86798.00;;;
69597;BMP180;56802;51.184;-115.558;2022-08-11T19:29:42;86800.20;;;
69597;BMP180;56802;51.184;-115.558;2022-08-11T19:32:41;86802.20;;;
69597;BMP180;56802;51.184;-115.558;2022-08-11T19:35:31;86799.60;;;